Airfield :
LOGIN :

Register | Disclaimer

   EN    FR    IT 

 










Legend :    VFR   Marginal VFR   IFR   Intensive IFR   Very Intensive IFR
Visi :
Ceiling :
>= 8 km
>= 3000ft
5 to 8 km
1000 to 3000 ft
1500m to 5 km
500 to 1000 ft
800 to 1500m
200 to 500 ft
< 800m
< 200 ft
Symbols :   Thunderstorms  Fog  Heavy snow  Heavy precipitations  Wind > 20 kt
SIGMETs :     Misc.  Thunderstorms  Icing  Turbulence  Mountain Waves  Volcanic Ashes







- Airport Elevation : 242 ft
- IATA code : DUB


EIDW - Dublin

CURRENT METAR :
  • 241330Z 31004KT 260V340 9999 FEW014 SCT025 BKN070 17/12 Q1016 NOSIG

EXPIRED METARs :
  • 241300Z 29004KT 230V340 9999 FEW014 SCT025 BKN070 17/13 Q1016 NOSIG
  • 241230Z 34004KT 300V010 9999 FEW014 SCT032 BKN070 16/13 Q1016 NOSIG
  • 241200Z 31005KT 280V350 9999 FEW014 SCT032 BKN070 16/13 Q1016 NOSIG
  • 241130Z 28007KT 240V300 9999 FEW014 SCT032 BKN040 16/13 Q1015 NOSIG
  • 241100Z 28005KT 260V340 9999 FEW010 SCT034 BKN050 16/13 Q1015 NOSIG

TAF COR TAF EIDW
Valid from the 24 at 12:00 until the 25 at 12:00 UTC


241155Z 2412/2512 30007KT 9999 FEW015 BKN030
BECMG 2413/2415 VRB03KT
BECMG 2420/2423 27007KT
TEMPO 2501/2506 3000 BR SCT005
PROB40
TEMPO 2503/2508 0500 FG BKN001
No reported NOTAMs for that airfield.



MET'MAP, your aeronautical weather chart ! - Copyright ORBIFLY December 2007 - Disclaimer

ORBIFLY MET'MAP TEAM :

Programming & Development : Alexandra Zaïnal
Concept & Development : Baudouin d'Aumeries
Co-Development & Prog : Marc-Olivier Méhu
Technical & hardware support : Manuel Goepfert

Contact : metmap@orbifly.com




SOURCES & CREDITS :

   NOAA